sensor_id;sensor_type;location;lat;lon;timestamp;temperature;humidity
77985;DHT22;67177;47.240;-1.546;2023-03-03T00:02:23;4.20;64.60
77985;DHT22;67177;47.240;-1.546;2023-03-03T00:04:48;4.20;64.60
77985;DHT22;67177;47.240;-1.546;2023-03-03T00:07:14;4.20;64.60
77985;DHT22;67177;47.240;-1.546;2023-03-03T00:09:46;4.10;64.70
77985;DHT22;67177;47.240;-1.546;2023-03-03T00:12:26;4.10;64.80
77985;DHT22;67177;47.240;-1.546;2023-03-03T00:14:53;4.10;64.80
77985;DHT22;67177;47.240;-1.546;2023-03-03T00:17:27;4.10;64.80
77985;DHT22;67177;47.240;-1.546;2023-03-03T00:19:53;4.10;64.90
77985;DHT22;67177;47.240;-1.546;2023-03-03T00:22:34;4.10;64.90
77985;DHT22;67177;47.240;-1.546;2023-03-03T00:27:49;4.00;65.00
77985;DHT22;67177;47.240;-1.546;2023-03-03T00:30:25;4.00;65.20
77985;DHT22;67177;47.240;-1.546;2023-03-03T00:32:54;4.00;65.20
77985;DHT22;67177;47.240;-1.546;2023-03-03T00:35:31;3.90;65.40
77985;DHT22;67177;47.240;-1.546;2023-03-03T00:38:09;3.90;65.30
77985;DHT22;67177;47.240;-1.546;2023-03-03T00:40:37;3.90;65.40
77985;DHT22;67177;47.240;-1.546;2023-03-03T00:43:23;3.90;65.50
77985;DHT22;67177;47.240;-1.546;2023-03-03T00:48:27;3.80;65.50
77985;DHT22;67177;47.240;-1.546;2023-03-03T00:50:55;3.80;65.60
77985;DHT22;67177;47.240;-1.546;2023-03-03T00:53:23;3.80;65.60
77985;DHT22;67177;47.240;-1.546;2023-03-03T00:55:51;3.80;65.60
77985;DHT22;67177;47.240;-1.546;2023-03-03T00:58:17;3.70;65.80
77985;DHT22;67177;47.240;-1.546;2023-03-03T01:00:47;3.70;65.80
77985;DHT22;67177;47.240;-1.546;2023-03-03T01:03:22;3.70;65.70
77985;DHT22;67177;47.240;-1.546;2023-03-03T01:05:49;3.70;65.80
77985;DHT22;67177;47.240;-1.546;2023-03-03T01:08:15;3.70;65.80
77985;DHT22;67177;47.240;-1.546;2023-03-03T01:10:47;3.70;65.80
77985;DHT22;67177;47.240;-1.546;2023-03-03T01:13:15;3.70;65.80
77985;DHT22;67177;47.240;-1.546;2023-03-03T01:15:42;3.70;65.90
77985;DHT22;67177;47.240;-1.546;2023-03-03T01:18:11;3.70;65.90
77985;DHT22;67177;47.240;-1.546;2023-03-03T01:20:38;3.70;65.80
77985;DHT22;67177;47.240;-1.546;2023-03-03T01:23:04;3.70;65.80
77985;DHT22;67177;47.240;-1.546;2023-03-03T01:25:29;3.70;66.00
77985;DHT22;67177;47.240;-1.546;2023-03-03T01:27:56;3.70;66.00
77985;DHT22;67177;47.240;-1.546;2023-03-03T01:30:23;3.60;66.10
77985;DHT22;67177;47.240;-1.546;2023-03-03T01:32:49;3.60;66.20
77985;DHT22;67177;47.240;-1.546;2023-03-03T01:35:15;3.60;66.30
77985;DHT22;67177;47.240;-1.546;2023-03-03T01:37:41;3.50;66.40
77985;DHT22;67177;47.240;-1.546;2023-03-03T01:40:12;3.50;66.40
77985;DHT22;67177;47.240;-1.546;2023-03-03T01:42:38;3.50;66.40
77985;DHT22;67177;47.240;-1.546;2023-03-03T01:47:46;3.50;66.50
77985;DHT22;67177;47.240;-1.546;2023-03-03T01:50:30;3.50;66.50
77985;DHT22;67177;47.240;-1.546;2023-03-03T01:52:58;3.50;66.60
77985;DHT22;67177;47.240;-1.546;2023-03-03T01:55:31;3.50;66.60
77985;DHT22;67177;47.240;-1.546;2023-03-03T01:58:14;3.40;66.80
77985;DHT22;67177;47.240;-1.546;2023-03-03T02:00:43;3.40;66.80
77985;DHT22;67177;47.240;-1.546;2023-03-03T02:03:11;3.40;66.70
77985;DHT22;67177;47.240;-1.546;2023-03-03T02:05:37;3.40;66.80
77985;DHT22;67177;47.240;-1.546;2023-03-03T02:08:04;3.40;66.70
77985;DHT22;67177;47.240;-1.546;2023-03-03T02:10:31;3.40;66.60
77985;DHT22;67177;47.240;-1.546;2023-03-03T02:12:57;3.40;66.60
77985;DHT22;67177;47.240;-1.546;2023-03-03T02:15:25;3.40;66.70
77985;DHT22;67177;47.240;-1.546;2023-03-03T02:17:56;3.40;66.70
77985;DHT22;67177;47.240;-1.546;2023-03-03T02:23:17;3.40;66.60
77985;DHT22;67177;47.240;-1.546;2023-03-03T02:26:18;3.40;66.70
77985;DHT22;67177;47.240;-1.546;2023-03-03T02:28:47;3.40;66.90
77985;DHT22;67177;47.240;-1.546;2023-03-03T02:31:16;3.30;66.90
77985;DHT22;67177;47.240;-1.546;2023-03-03T02:33:44;3.40;67.00
77985;DHT22;67177;47.240;-1.546;2023-03-03T02:36:25;3.30;66.90
77985;DHT22;67177;47.240;-1.546;2023-03-03T02:39:13;3.30;66.90
77985;DHT22;67177;47.240;-1.546;2023-03-03T02:42:01;3.30;66.90
77985;DHT22;67177;47.240;-1.546;2023-03-03T02:44:31;3.30;66.80
77985;DHT22;67177;47.240;-1.546;2023-03-03T02:46:58;3.30;66.80
77985;DHT22;67177;47.240;-1.546;2023-03-03T02:49:26;3.30;66.80
77985;DHT22;67177;47.240;-1.546;2023-03-03T02:51:52;3.30;66.80
77985;DHT22;67177;47.240;-1.546;2023-03-03T02:54:20;3.30;66.90
77985;DHT22;67177;47.240;-1.546;2023-03-03T02:56:46;3.30;67.00
77985;DHT22;67177;47.240;-1.546;2023-03-03T02:59:13;3.30;66.90
77985;DHT22;67177;47.240;-1.546;2023-03-03T03:01:39;3.30;67.00
77985;DHT22;67177;47.240;-1.546;2023-03-03T03:04:11;3.20;67.00
77985;DHT22;67177;47.240;-1.546;2023-03-03T03:06:37;3.20;67.10
77985;DHT22;67177;47.240;-1.546;2023-03-03T03:09:04;3.20;67.00
77985;DHT22;67177;47.240;-1.546;2023-03-03T03:11:30;3.20;67.10
77985;DHT22;67177;47.240;-1.546;2023-03-03T03:13:56;3.20;67.30
77985;DHT22;67177;47.240;-1.546;2023-03-03T03:16:22;3.20;67.40
77985;DHT22;67177;47.240;-1.546;2023-03-03T03:18:47;3.20;67.40
77985;DHT22;67177;47.240;-1.546;2023-03-03T03:21:15;3.20;67.30
77985;DHT22;67177;47.240;-1.546;2023-03-03T03:23:41;3.20;67.20
77985;DHT22;67177;47.240;-1.546;2023-03-03T03:26:07;3.10;67.20
77985;DHT22;67177;47.240;-1.546;2023-03-03T03:28:33;3.10;67.20
77985;DHT22;67177;47.240;-1.546;2023-03-03T03:30:59;3.10;67.20
77985;DHT22;67177;47.240;-1.546;2023-03-03T03:33:25;3.10;67.10
77985;DHT22;67177;47.240;-1.546;2023-03-03T03:35:53;3.10;67.20
77985;DHT22;67177;47.240;-1.546;2023-03-03T03:38:20;3.10;67.30
77985;DHT22;67177;47.240;-1.546;2023-03-03T03:40:46;3.10;67.30
77985;DHT22;67177;47.240;-1.546;2023-03-03T03:43:12;3.10;67.30
77985;DHT22;67177;47.240;-1.546;2023-03-03T03:45:38;3.10;67.20
77985;DHT22;67177;47.240;-1.546;2023-03-03T03:48:04;3.10;67.40
77985;DHT22;67177;47.240;-1.546;2023-03-03T03:50:29;3.10;67.60
77985;DHT22;67177;47.240;-1.546;2023-03-03T03:52:55;3.10;67.60
77985;DHT22;67177;47.240;-1.546;2023-03-03T03:55:21;3.10;67.70
77985;DHT22;67177;47.240;-1.546;2023-03-03T03:57:47;3.10;67.60
77985;DHT22;67177;47.240;-1.546;2023-03-03T04:00:13;3.10;67.60
77985;DHT22;67177;47.240;-1.546;2023-03-03T04:02:39;3.10;67.50
77985;DHT22;67177;47.240;-1.546;2023-03-03T04:05:05;3.10;67.60
77985;DHT22;67177;47.240;-1.546;2023-03-03T04:07:31;3.00;67.60
77985;DHT22;67177;47.240;-1.546;2023-03-03T04:09:57;3.00;67.70
77985;DHT22;67177;47.240;-1.546;2023-03-03T04:12:23;3.00;67.80
77985;DHT22;67177;47.240;-1.546;2023-03-03T04:14:48;3.00;67.90
77985;DHT22;67177;47.240;-1.546;2023-03-03T04:17:18;3.00;67.90
77985;DHT22;67177;47.240;-1.546;2023-03-03T04:19:44;3.00;67.90
77985;DHT22;67177;47.240;-1.546;2023-03-03T04:22:11;2.90;67.90
77985;DHT22;67177;47.240;-1.546;2023-03-03T04:24:38;3.00;67.90
77985;DHT22;67177;47.240;-1.546;2023-03-03T04:27:04;3.00;67.90
77985;DHT22;67177;47.240;-1.546;2023-03-03T04:29:29;3.00;67.90
77985;DHT22;67177;47.240;-1.546;2023-03-03T04:31:55;3.00;68.10
77985;DHT22;67177;47.240;-1.546;2023-03-03T04:34:21;2.90;68.10
77985;DHT22;67177;47.240;-1.546;2023-03-03T04:36:46;2.90;68.20
77985;DHT22;67177;47.240;-1.546;2023-03-03T04:39:12;2.90;68.20
77985;DHT22;67177;47.240;-1.546;2023-03-03T04:41:38;2.90;68.10
77985;DHT22;67177;47.240;-1.546;2023-03-03T04:44:03;2.90;68.20
77985;DHT22;67177;47.240;-1.546;2023-03-03T04:46:29;2.80;68.20
77985;DHT22;67177;47.240;-1.546;2023-03-03T04:48:55;2.80;68.30
77985;DHT22;67177;47.240;-1.546;2023-03-03T04:51:21;2.80;68.30
77985;DHT22;67177;47.240;-1.546;2023-03-03T04:53:47;2.80;68.40
77985;DHT22;67177;47.240;-1.546;2023-03-03T04:56:12;2.80;68.30
77985;DHT22;67177;47.240;-1.546;2023-03-03T04:58:38;2.80;68.20
77985;DHT22;67177;47.240;-1.546;2023-03-03T05:01:04;2.80;68.20
77985;DHT22;67177;47.240;-1.546;2023-03-03T05:03:30;2.80;68.20
77985;DHT22;67177;47.240;-1.546;2023-03-03T05:05:56;2.80;68.20
77985;DHT22;67177;47.240;-1.546;2023-03-03T05:08:21;2.80;68.20
77985;DHT22;67177;47.240;-1.546;2023-03-03T05:10:51;2.70;68.40
77985;DHT22;67177;47.240;-1.546;2023-03-03T05:13:17;2.70;68.40
77985;DHT22;67177;47.240;-1.546;2023-03-03T05:15:43;2.70;68.50
77985;DHT22;67177;47.240;-1.546;2023-03-03T05:18:13;2.70;68.50
77985;DHT22;67177;47.240;-1.546;2023-03-03T05:20:39;2.70;68.40
77985;DHT22;67177;47.240;-1.546;2023-03-03T05:23:05;2.70;68.40
77985;DHT22;67177;47.240;-1.546;2023-03-03T05:25:31;2.70;68.40
77985;DHT22;67177;47.240;-1.546;2023-03-03T05:27:57;2.70;68.40
77985;DHT22;67177;47.240;-1.546;2023-03-03T05:30:23;2.70;68.40
77985;DHT22;67177;47.240;-1.546;2023-03-03T05:32:49;2.70;68.40
77985;DHT22;67177;47.240;-1.546;2023-03-03T05:35:15;2.70;68.30
77985;DHT22;67177;47.240;-1.546;2023-03-03T05:37:40;2.70;68.40
77985;DHT22;67177;47.240;-1.546;2023-03-03T05:40:12;2.70;68.40
77985;DHT22;67177;47.240;-1.546;2023-03-03T05:42:38;2.60;68.50
77985;DHT22;67177;47.240;-1.546;2023-03-03T05:45:04;2.60;68.60
77985;DHT22;67177;47.240;-1.546;2023-03-03T05:47:30;2.60;68.70
77985;DHT22;67177;47.240;-1.546;2023-03-03T05:49:55;2.50;68.80
77985;DHT22;67177;47.240;-1.546;2023-03-03T05:52:21;2.50;69.00
77985;DHT22;67177;47.240;-1.546;2023-03-03T05:54:48;2.50;69.10
77985;DHT22;67177;47.240;-1.546;2023-03-03T05:57:14;2.50;68.90
77985;DHT22;67177;47.240;-1.546;2023-03-03T05:59:40;2.50;69.00
77985;DHT22;67177;47.240;-1.546;2023-03-03T06:02:06;2.50;68.80
77985;DHT22;67177;47.240;-1.546;2023-03-03T06:04:32;2.50;68.80
77985;DHT22;67177;47.240;-1.546;2023-03-03T06:06:58;2.50;68.70
77985;DHT22;67177;47.240;-1.546;2023-03-03T06:09:23;2.50;68.60
77985;DHT22;67177;47.240;-1.546;2023-03-03T06:11:50;2.50;68.80
77985;DHT22;67177;47.240;-1.546;2023-03-03T06:14:18;2.40;68.90
77985;DHT22;67177;47.240;-1.546;2023-03-03T06:16:48;2.50;68.90
77985;DHT22;67177;47.240;-1.546;2023-03-03T06:19:14;2.40;68.80
77985;DHT22;67177;47.240;-1.546;2023-03-03T06:21:40;2.40;68.80
77985;DHT22;67177;47.240;-1.546;2023-03-03T06:24:07;2.40;68.90
77985;DHT22;67177;47.240;-1.546;2023-03-03T06:26:32;2.50;68.90
77985;DHT22;67177;47.240;-1.546;2023-03-03T06:28:59;2.50;68.90
77985;DHT22;67177;47.240;-1.546;2023-03-03T06:31:25;2.40;69.00
77985;DHT22;67177;47.240;-1.546;2023-03-03T06:33:51;2.40;69.10
77985;DHT22;67177;47.240;-1.546;2023-03-03T06:36:17;2.40;69.10
77985;DHT22;67177;47.240;-1.546;2023-03-03T06:38:43;2.40;69.00
77985;DHT22;67177;47.240;-1.546;2023-03-03T06:41:09;2.50;69.00
77985;DHT22;67177;47.240;-1.546;2023-03-03T06:43:36;2.50;69.10
77985;DHT22;67177;47.240;-1.546;2023-03-03T06:46:02;2.40;69.00
77985;DHT22;67177;47.240;-1.546;2023-03-03T06:48:29;2.50;69.00
77985;DHT22;67177;47.240;-1.546;2023-03-03T06:50:55;2.50;69.00
77985;DHT22;67177;47.240;-1.546;2023-03-03T06:53:21;2.50;69.00
77985;DHT22;67177;47.240;-1.546;2023-03-03T06:55:47;2.50;68.90
77985;DHT22;67177;47.240;-1.546;2023-03-03T06:58:15;2.50;68.90
77985;DHT22;67177;47.240;-1.546;2023-03-03T07:00:49;2.50;68.80
77985;DHT22;67177;47.240;-1.546;2023-03-03T07:03:20;2.50;69.00
77985;DHT22;67177;47.240;-1.546;2023-03-03T07:05:48;2.50;69.30
77985;DHT22;67177;47.240;-1.546;2023-03-03T07:08:16;2.50;69.30
77985;DHT22;67177;47.240;-1.546;2023-03-03T07:10:43;2.60;69.40
77985;DHT22;67177;47.240;-1.546;2023-03-03T07:13:21;2.60;69.30
77985;DHT22;67177;47.240;-1.546;2023-03-03T07:15:49;2.60;69.20
77985;DHT22;67177;47.240;-1.546;2023-03-03T07:20:46;2.70;69.30
77985;DHT22;67177;47.240;-1.546;2023-03-03T07:23:29;2.70;69.20
77985;DHT22;67177;47.240;-1.546;2023-03-03T07:25:56;2.70;69.20
77985;DHT22;67177;47.240;-1.546;2023-03-03T07:30:50;2.80;68.90
77985;DHT22;67177;47.240;-1.546;2023-03-03T07:33:23;2.90;69.00
77985;DHT22;67177;47.240;-1.546;2023-03-03T07:35:50;2.90;68.90
77985;DHT22;67177;47.240;-1.546;2023-03-03T07:38:19;2.90;69.10
77985;DHT22;67177;47.240;-1.546;2023-03-03T07:40:50;3.00;69.00
77985;DHT22;67177;47.240;-1.546;2023-03-03T07:46:00;3.00;69.20
77985;DHT22;67177;47.240;-1.546;2023-03-03T07:48:37;3.10;69.10
77985;DHT22;67177;47.240;-1.546;2023-03-03T07:51:15;3.20;68.90
77985;DHT22;67177;47.240;-1.546;2023-03-03T07:53:43;3.20;69.00
77985;DHT22;67177;47.240;-1.546;2023-03-03T07:58:45;3.30;69.20
77985;DHT22;67177;47.240;-1.546;2023-03-03T08:01:37;3.40;69.20
77985;DHT22;67177;47.240;-1.546;2023-03-03T08:06:53;3.50;68.90
77985;DHT22;67177;47.240;-1.546;2023-03-03T08:12:01;3.60;68.90
77985;DHT22;67177;47.240;-1.546;2023-03-03T08:14:35;3.70;68.90
77985;DHT22;67177;47.240;-1.546;2023-03-03T08:17:12;3.70;69.00
77985;DHT22;67177;47.240;-1.546;2023-03-03T08:19:39;3.70;68.90
77985;DHT22;67177;47.240;-1.546;2023-03-03T08:22:23;3.80;69.00
77985;DHT22;67177;47.240;-1.546;2023-03-03T08:24:49;3.90;68.90
77985;DHT22;67177;47.240;-1.546;2023-03-03T08:27:16;3.90;69.00
77985;DHT22;67177;47.240;-1.546;2023-03-03T08:29:41;3.90;69.20
77985;DHT22;67177;47.240;-1.546;2023-03-03T08:32:07;3.90;69.10
77985;DHT22;67177;47.240;-1.546;2023-03-03T08:34:32;4.00;68.90
77985;DHT22;67177;47.240;-1.546;2023-03-03T08:36:58;4.10;69.00
77985;DHT22;67177;47.240;-1.546;2023-03-03T08:39:24;4.10;68.90
77985;DHT22;67177;47.240;-1.546;2023-03-03T08:41:49;4.10;68.90
77985;DHT22;67177;47.240;-1.546;2023-03-03T08:44:15;4.10;68.90
77985;DHT22;67177;47.240;-1.546;2023-03-03T08:46:41;4.10;68.80
77985;DHT22;67177;47.240;-1.546;2023-03-03T08:49:08;4.20;68.70
77985;DHT22;67177;47.240;-1.546;2023-03-03T08:51:34;4.10;68.80
77985;DHT22;67177;47.240;-1.546;2023-03-03T08:53:59;4.10;68.90
77985;DHT22;67177;47.240;-1.546;2023-03-03T08:56:25;4.10;68.80
77985;DHT22;67177;47.240;-1.546;2023-03-03T08:58:51;4.20;68.80
77985;DHT22;67177;47.240;-1.546;2023-03-03T09:01:16;4.20;68.70
77985;DHT22;67177;47.240;-1.546;2023-03-03T09:03:43;4.30;68.50
77985;DHT22;67177;47.240;-1.546;2023-03-03T09:06:09;4.30;68.50
77985;DHT22;67177;47.240;-1.546;2023-03-03T09:08:35;4.30;68.40
77985;DHT22;67177;47.240;-1.546;2023-03-03T09:11:01;4.30;68.30
77985;DHT22;67177;47.240;-1.546;2023-03-03T09:13:30;4.40;68.20
77985;DHT22;67177;47.240;-1.546;2023-03-03T09:15:57;4.40;68.30
77985;DHT22;67177;47.240;-1.546;2023-03-03T09:18:37;4.40;68.30
77985;DHT22;67177;47.240;-1.546;2023-03-03T09:21:21;4.50;68.10
77985;DHT22;67177;47.240;-1.546;2023-03-03T09:23:54;4.60;68.10
77985;DHT22;67177;47.240;-1.546;2023-03-03T09:26:27;4.60;68.00
77985;DHT22;67177;47.240;-1.546;2023-03-03T09:29:24;4.70;68.00
77985;DHT22;67177;47.240;-1.546;2023-03-03T09:34:24;4.80;67.60
77985;DHT22;67177;47.240;-1.546;2023-03-03T09:36:52;4.80;67.60
77985;DHT22;67177;47.240;-1.546;2023-03-03T09:39:21;4.90;67.40
77985;DHT22;67177;47.240;-1.546;2023-03-03T09:44:39;5.00;67.50
77985;DHT22;67177;47.240;-1.546;2023-03-03T10:08:41;5.40;66.90
77985;DHT22;67177;47.240;-1.546;2023-03-03T10:19:35;5.70;66.40
77985;DHT22;67177;47.240;-1.546;2023-03-03T10:30:53;5.80;65.80
77985;DHT22;67177;47.240;-1.546;2023-03-03T10:38:41;6.00;65.60
77985;DHT22;67177;47.240;-1.546;2023-03-03T10:47:22;6.10;65.30
77985;DHT22;67177;47.240;-1.546;2023-03-03T10:55:56;6.10;65.20
77985;DHT22;67177;47.240;-1.546;2023-03-03T11:03:54;6.30;64.60
77985;DHT22;67177;47.240;-1.546;2023-03-03T11:06:28;6.30;64.60
77985;DHT22;67177;47.240;-1.546;2023-03-03T11:17:09;6.40;64.60
77985;DHT22;67177;47.240;-1.546;2023-03-03T11:20:41;6.50;64.50
77985;DHT22;67177;47.240;-1.546;2023-03-03T11:33:20;6.70;64.10
77985;DHT22;67177;47.240;-1.546;2023-03-03T11:38:56;6.80;63.70
77985;DHT22;67177;47.240;-1.546;2023-03-03T11:44:28;7.00;63.60
77985;DHT22;67177;47.240;-1.546;2023-03-03T11:49:33;7.10;63.60
77985;DHT22;67177;47.240;-1.546;2023-03-03T11:54:53;7.20;63.50
77985;DHT22;67177;47.240;-1.546;2023-03-03T11:57:26;7.20;63.60
77985;DHT22;67177;47.240;-1.546;2023-03-03T12:03:25;7.40;63.60
77985;DHT22;67177;47.240;-1.546;2023-03-03T12:35:38;7.80;62.00
77985;DHT22;67177;47.240;-1.546;2023-03-03T12:49:14;8.10;61.00
77985;DHT22;67177;47.240;-1.546;2023-03-03T12:54:28;8.10;61.00
77985;DHT22;67177;47.240;-1.546;2023-03-03T13:10:54;8.50;60.50
77985;DHT22;67177;47.240;-1.546;2023-03-03T13:17:22;8.60;60.20
77985;DHT22;67177;47.240;-1.546;2023-03-03T13:19:26;8.70;60.00
77985;DHT22;67177;47.240;-1.546;2023-03-03T13:21:58;8.70;59.80
77985;DHT22;67177;47.240;-1.546;2023-03-03T13:27:14;8.80;59.90
77985;DHT22;67177;47.240;-1.546;2023-03-03T13:29:45;8.90;59.70
77985;DHT22;67177;47.240;-1.546;2023-03-03T13:32:21;8.90;59.60
77985;DHT22;67177;47.240;-1.546;2023-03-03T13:34:54;9.00;59.50
77985;DHT22;67177;47.240;-1.546;2023-03-03T13:37:31;9.00;59.40
77985;DHT22;67177;47.240;-1.546;2023-03-03T13:42:31;9.10;59.00
77985;DHT22;67177;47.240;-1.546;2023-03-03T13:45:00;9.20;59.00
77985;DHT22;67177;47.240;-1.546;2023-03-03T13:50:26;9.30;58.80
77985;DHT22;67177;47.240;-1.546;2023-03-03T13:53:23;9.30;58.70
77985;DHT22;67177;47.240;-1.546;2023-03-03T14:04:30;9.40;58.10
77985;DHT22;67177;47.240;-1.546;2023-03-03T14:07:06;9.50;58.20
77985;DHT22;67177;47.240;-1.546;2023-03-03T14:09:47;9.50;58.20
77985;DHT22;67177;47.240;-1.546;2023-03-03T14:17:27;9.60;57.70
77985;DHT22;67177;47.240;-1.546;2023-03-03T14:22:51;9.60;57.60
77985;DHT22;67177;47.240;-1.546;2023-03-03T14:25:18;9.70;57.10
77985;DHT22;67177;47.240;-1.546;2023-03-03T14:35:43;9.80;56.30
77985;DHT22;67177;47.240;-1.546;2023-03-03T14:38:15;9.80;56.30
77985;DHT22;67177;47.240;-1.546;2023-03-03T14:40:43;9.80;56.20
77985;DHT22;67177;47.240;-1.546;2023-03-03T14:43:35;9.90;56.20
77985;DHT22;67177;47.240;-1.546;2023-03-03T14:46:35;9.90;56.00
77985;DHT22;67177;47.240;-1.546;2023-03-03T14:49:04;9.90;56.00
77985;DHT22;67177;47.240;-1.546;2023-03-03T14:53:58;9.90;55.60
77985;DHT22;67177;47.240;-1.546;2023-03-03T14:56:28;10.00;55.30
77985;DHT22;67177;47.240;-1.546;2023-03-03T14:59:18;10.00;55.30
77985;DHT22;67177;47.240;-1.546;2023-03-03T15:01:44;10.00;55.40
77985;DHT22;67177;47.240;-1.546;2023-03-03T15:06:57;10.00;54.80
77985;DHT22;67177;47.240;-1.546;2023-03-03T15:09:39;10.00;54.80
77985;DHT22;67177;47.240;-1.546;2023-03-03T15:12:20;10.00;54.80
77985;DHT22;67177;47.240;-1.546;2023-03-03T15:17:38;10.00;54.40
77985;DHT22;67177;47.240;-1.546;2023-03-03T15:20:36;10.00;54.40
77985;DHT22;67177;47.240;-1.546;2023-03-03T15:26:09;10.00;54.30
77985;DHT22;67177;47.240;-1.546;2023-03-03T15:31:48;10.00;54.10
77985;DHT22;67177;47.240;-1.546;2023-03-03T15:34:37;10.00;53.90
77985;DHT22;67177;47.240;-1.546;2023-03-03T15:39:54;10.00;53.90
77985;DHT22;67177;47.240;-1.546;2023-03-03T15:42:38;10.00;53.80
77985;DHT22;67177;47.240;-1.546;2023-03-03T15:50:27;9.90;53.00
77985;DHT22;67177;47.240;-1.546;2023-03-03T15:56:11;9.90;53.00
77985;DHT22;67177;47.240;-1.546;2023-03-03T16:04:14;9.90;52.60
77985;DHT22;67177;47.240;-1.546;2023-03-03T16:07:21;9.90;52.70
77985;DHT22;67177;47.240;-1.546;2023-03-03T16:18:20;9.80;53.10
77985;DHT22;67177;47.240;-1.546;2023-03-03T16:36:07;9.70;53.80
77985;DHT22;67177;47.240;-1.546;2023-03-03T16:38:37;9.60;54.00
77985;DHT22;67177;47.240;-1.546;2023-03-03T16:41:20;9.60;54.00
77985;DHT22;67177;47.240;-1.546;2023-03-03T16:44:03;9.50;54.20
77985;DHT22;67177;47.240;-1.546;2023-03-03T16:46:37;9.50;54.30
77985;DHT22;67177;47.240;-1.546;2023-03-03T16:52:02;9.50;54.60
77985;DHT22;67177;47.240;-1.546;2023-03-03T16:57:33;9.40;54.80
77985;DHT22;67177;47.240;-1.546;2023-03-03T17:00:27;9.40;55.00
77985;DHT22;67177;47.240;-1.546;2023-03-03T17:06:03;9.20;55.30
77985;DHT22;67177;47.240;-1.546;2023-03-03T17:11:08;9.10;55.60
77985;DHT22;67177;47.240;-1.546;2023-03-03T17:16:26;9.10;55.80
77985;DHT22;67177;47.240;-1.546;2023-03-03T17:23:07;9.00;56.10
77985;DHT22;67177;47.240;-1.546;2023-03-03T17:30:29;8.80;56.50
77985;DHT22;67177;47.240;-1.546;2023-03-03T17:33:09;8.70;56.70
77985;DHT22;67177;47.240;-1.546;2023-03-03T17:35:57;8.60;56.90
77985;DHT22;67177;47.240;-1.546;2023-03-03T17:46:36;8.30;57.70
77985;DHT22;67177;47.240;-1.546;2023-03-03T17:49:17;8.20;57.90
77985;DHT22;67177;47.240;-1.546;2023-03-03T17:57:41;7.90;58.60
77985;DHT22;67177;47.240;-1.546;2023-03-03T18:09:03;7.60;59.40
77985;DHT22;67177;47.240;-1.546;2023-03-03T18:22:24;7.30;60.10
77985;DHT22;67177;47.240;-1.546;2023-03-03T18:25:09;7.30;60.30
77985;DHT22;67177;47.240;-1.546;2023-03-03T18:27:45;7.20;60.50
77985;DHT22;67177;47.240;-1.546;2023-03-03T18:38:17;7.10;60.80
77985;DHT22;67177;47.240;-1.546;2023-03-03T18:41:29;7.10;60.80
77985;DHT22;67177;47.240;-1.546;2023-03-03T18:44:22;7.00;60.90
77985;DHT22;67177;47.240;-1.546;2023-03-03T18:46:49;7.00;61.00
77985;DHT22;67177;47.240;-1.546;2023-03-03T18:49:16;6.90;61.10
77985;DHT22;67177;47.240;-1.546;2023-03-03T19:04:40;6.70;61.50
77985;DHT22;67177;47.240;-1.546;2023-03-03T19:10:00;6.60;61.60
77985;DHT22;67177;47.240;-1.546;2023-03-03T19:12:48;6.60;61.80
77985;DHT22;67177;47.240;-1.546;2023-03-03T19:18:21;6.50;61.90
77985;DHT22;67177;47.240;-1.546;2023-03-03T19:20:58;6.50;62.00
77985;DHT22;67177;47.240;-1.546;2023-03-03T19:23:51;6.40;62.10
77985;DHT22;67177;47.240;-1.546;2023-03-03T19:42:52;6.20;62.70
77985;DHT22;67177;47.240;-1.546;2023-03-03T19:50:52;6.20;62.80
77985;DHT22;67177;47.240;-1.546;2023-03-03T19:53:51;6.20;62.90
77985;DHT22;67177;47.240;-1.546;2023-03-03T19:59:26;6.10;63.00
77985;DHT22;67177;47.240;-1.546;2023-03-03T20:02:35;6.10;63.00
77985;DHT22;67177;47.240;-1.546;2023-03-03T20:08:20;6.00;63.00
77985;DHT22;67177;47.240;-1.546;2023-03-03T20:18:47;5.90;63.50
77985;DHT22;67177;47.240;-1.546;2023-03-03T20:21:42;5.90;63.60
77985;DHT22;67177;47.240;-1.546;2023-03-03T20:27:27;5.80;63.70
77985;DHT22;67177;47.240;-1.546;2023-03-03T20:46:18;5.70;64.00
77985;DHT22;67177;47.240;-1.546;2023-03-03T20:51:31;5.60;64.30
77985;DHT22;67177;47.240;-1.546;2023-03-03T20:59:43;5.50;64.40
77985;DHT22;67177;47.240;-1.546;2023-03-03T21:05:18;5.50;64.40
77985;DHT22;67177;47.240;-1.546;2023-03-03T21:07:58;5.50;64.60
77985;DHT22;67177;47.240;-1.546;2023-03-03T21:10:34;5.50;64.60
77985;DHT22;67177;47.240;-1.546;2023-03-03T21:13:26;5.50;64.60
77985;DHT22;67177;47.240;-1.546;2023-03-03T21:16:04;5.50;64.70
77985;DHT22;67177;47.240;-1.546;2023-03-03T21:18:30;5.50;64.70
77985;DHT22;67177;47.240;-1.546;2023-03-03T21:20:56;5.50;64.80
77985;DHT22;67177;47.240;-1.546;2023-03-03T21:23:22;5.50;64.80
77985;DHT22;67177;47.240;-1.546;2023-03-03T21:25:55;5.50;64.80
77985;DHT22;67177;47.240;-1.546;2023-03-03T21:28:32;5.40;64.80
77985;DHT22;67177;47.240;-1.546;2023-03-03T21:33:51;5.40;64.90
77985;DHT22;67177;47.240;-1.546;2023-03-03T21:39:19;5.40;64.80
77985;DHT22;67177;47.240;-1.546;2023-03-03T21:41:59;5.40;64.90
77985;DHT22;67177;47.240;-1.546;2023-03-03T21:44:47;5.40;64.90
77985;DHT22;67177;47.240;-1.546;2023-03-03T21:47:19;5.40;64.90
77985;DHT22;67177;47.240;-1.546;2023-03-03T21:49:47;5.40;64.90
77985;DHT22;67177;47.240;-1.546;2023-03-03T21:52:14;5.30;64.90
77985;DHT22;67177;47.240;-1.546;2023-03-03T21:54:41;5.30;64.90
77985;DHT22;67177;47.240;-1.546;2023-03-03T21:57:08;5.30;64.80
77985;DHT22;67177;47.240;-1.546;2023-03-03T21:59:34;5.30;64.80
77985;DHT22;67177;47.240;-1.546;2023-03-03T22:01:59;5.30;64.80
77985;DHT22;67177;47.240;-1.546;2023-03-03T22:04:25;5.20;64.80
77985;DHT22;67177;47.240;-1.546;2023-03-03T22:06:51;5.20;64.80
77985;DHT22;67177;47.240;-1.546;2023-03-03T22:09:17;5.20;64.90
77985;DHT22;67177;47.240;-1.546;2023-03-03T22:11:43;5.20;65.00
77985;DHT22;67177;47.240;-1.546;2023-03-03T22:14:09;5.20;64.90
77985;DHT22;67177;47.240;-1.546;2023-03-03T22:16:35;5.20;64.80
77985;DHT22;67177;47.240;-1.546;2023-03-03T22:19:01;5.20;64.80
77985;DHT22;67177;47.240;-1.546;2023-03-03T22:21:28;5.20;64.80
77985;DHT22;67177;47.240;-1.546;2023-03-03T22:23:54;5.20;64.80
77985;DHT22;67177;47.240;-1.546;2023-03-03T22:26:19;5.20;64.80
77985;DHT22;67177;47.240;-1.546;2023-03-03T22:28:47;5.10;64.90
77985;DHT22;67177;47.240;-1.546;2023-03-03T22:31:13;5.20;65.00
77985;DHT22;67177;47.240;-1.546;2023-03-03T22:33:39;5.20;65.00
77985;DHT22;67177;47.240;-1.546;2023-03-03T22:36:05;5.20;65.00
77985;DHT22;67177;47.240;-1.546;2023-03-03T22:38:33;5.20;65.00
77985;DHT22;67177;47.240;-1.546;2023-03-03T22:40:58;5.10;65.00
77985;DHT22;67177;47.240;-1.546;2023-03-03T22:43:24;5.10;65.10
77985;DHT22;67177;47.240;-1.546;2023-03-03T22:45:50;5.10;65.10
77985;DHT22;67177;47.240;-1.546;2023-03-03T22:48:16;5.10;65.40
77985;DHT22;67177;47.240;-1.546;2023-03-03T22:50:42;5.10;65.40
77985;DHT22;67177;47.240;-1.546;2023-03-03T22:53:09;5.10;65.40
77985;DHT22;67177;47.240;-1.546;2023-03-03T22:55:35;5.10;65.60
77985;DHT22;67177;47.240;-1.546;2023-03-03T22:58:05;5.10;65.60
77985;DHT22;67177;47.240;-1.546;2023-03-03T23:00:32;5.10;65.60
77985;DHT22;67177;47.240;-1.546;2023-03-03T23:02:58;5.10;65.70
77985;DHT22;67177;47.240;-1.546;2023-03-03T23:05:24;5.10;65.70